sensor_id;sensor_type;location;lat;lon;timestamp;P1;durP1;ratioP1;P2;durP2;ratioP2
5999;SDS011;3028;49.468;7.694;2023-04-24T00:00:31;1.60;;;1.10;;
5999;SDS011;3028;49.468;7.694;2023-04-24T00:02:33;1.38;;;1.00;;
5999;SDS011;3028;49.468;7.694;2023-04-24T00:04:35;2.40;;;1.42;;
5999;SDS011;3028;49.468;7.694;2023-04-24T00:06:37;1.73;;;1.00;;
5999;SDS011;3028;49.468;7.694;2023-04-24T00:08:39;1.58;;;1.33;;
5999;SDS011;3028;49.468;7.694;2023-04-24T00:10:41;2.60;;;1.00;;
5999;SDS011;3028;49.468;7.694;2023-04-24T00:12:43;1.17;;;1.10;;
5999;SDS011;3028;49.468;7.694;2023-04-24T00:14:45;2.53;;;1.20;;
5999;SDS011;3028;49.468;7.694;2023-04-24T00:16:47;1.83;;;1.08;;
5999;SDS011;3028;49.468;7.694;2023-04-24T00:18:49;1.25;;;1.13;;
5999;SDS011;3028;49.468;7.694;2023-04-24T00:20:51;4.18;;;1.23;;
5999;SDS011;3028;49.468;7.694;2023-04-24T00:22:52;1.38;;;1.00;;
5999;SDS011;3028;49.468;7.694;2023-04-24T00:24:54;1.13;;;1.02;;
5999;SDS011;3028;49.468;7.694;2023-04-24T00:26:56;3.30;;;1.10;;
5999;SDS011;3028;49.468;7.694;2023-04-24T00:28:58;0.98;;;0.85;;
5999;SDS011;3028;49.468;7.694;2023-04-24T00:31:00;3.83;;;0.80;;
5999;SDS011;3028;49.468;7.694;2023-04-24T00:33:02;4.18;;;0.95;;
5999;SDS011;3028;49.468;7.694;2023-04-24T00:35:05;1.30;;;0.90;;
5999;SDS011;3028;49.468;7.694;2023-04-24T00:37:07;1.33;;;1.05;;
5999;SDS011;3028;49.468;7.694;2023-04-24T00:39:08;1.67;;;1.20;;
5999;SDS011;3028;49.468;7.694;2023-04-24T00:41:11;1.85;;;0.95;;
5999;SDS011;3028;49.468;7.694;2023-04-24T00:43:12;0.80;;;0.77;;
5999;SDS011;3028;49.468;7.694;2023-04-24T00:45:14;2.83;;;1.20;;
5999;SDS011;3028;49.468;7.694;2023-04-24T00:47:16;1.20;;;1.00;;
5999;SDS011;3028;49.468;7.694;2023-04-24T00:49:18;2.25;;;1.00;;
5999;SDS011;3028;49.468;7.694;2023-04-24T00:51:20;5.60;;;0.90;;
5999;SDS011;3028;49.468;7.694;2023-04-24T00:53:22;0.80;;;0.80;;
5999;SDS011;3028;49.468;7.694;2023-04-24T00:55:24;3.35;;;1.00;;
5999;SDS011;3028;49.468;7.694;2023-04-24T00:57:26;1.10;;;1.00;;
5999;SDS011;3028;49.468;7.694;2023-04-24T00:59:28;1.13;;;0.80;;
5999;SDS011;3028;49.468;7.694;2023-04-24T01:01:30;2.42;;;1.00;;
5999;SDS011;3028;49.468;7.694;2023-04-24T01:03:32;3.20;;;1.13;;
5999;SDS011;3028;49.468;7.694;2023-04-24T01:05:35;1.85;;;1.13;;
5999;SDS011;3028;49.468;7.694;2023-04-24T01:07:36;1.48;;;0.93;;
5999;SDS011;3028;49.468;7.694;2023-04-24T01:09:40;1.00;;;1.00;;
5999;SDS011;3028;49.468;7.694;2023-04-24T01:11:45;1.27;;;1.05;;
5999;SDS011;3028;49.468;7.694;2023-04-24T01:13:47;2.35;;;1.00;;
5999;SDS011;3028;49.468;7.694;2023-04-24T01:15:49;1.02;;;0.82;;
5999;SDS011;3028;49.468;7.694;2023-04-24T01:17:51;1.00;;;0.90;;
5999;SDS011;3028;49.468;7.694;2023-04-24T01:19:53;1.13;;;0.82;;
5999;SDS011;3028;49.468;7.694;2023-04-24T01:21:56;1.38;;;1.27;;
5999;SDS011;3028;49.468;7.694;2023-04-24T01:24:00;0.90;;;0.90;;
5999;SDS011;3028;49.468;7.694;2023-04-24T01:26:01;2.03;;;0.90;;
5999;SDS011;3028;49.468;7.694;2023-04-24T01:28:03;1.70;;;0.90;;
5999;SDS011;3028;49.468;7.694;2023-04-24T01:30:05;1.77;;;0.90;;
5999;SDS011;3028;49.468;7.694;2023-04-24T01:32:08;2.55;;;1.30;;
5999;SDS011;3028;49.468;7.694;2023-04-24T01:34:10;1.38;;;0.80;;
5999;SDS011;3028;49.468;7.694;2023-04-24T01:36:12;2.72;;;0.85;;
5999;SDS011;3028;49.468;7.694;2023-04-24T01:38:15;0.80;;;0.80;;
5999;SDS011;3028;49.468;7.694;2023-04-24T01:40:16;1.10;;;1.00;;
5999;SDS011;3028;49.468;7.694;2023-04-24T01:42:18;1.75;;;1.10;;
5999;SDS011;3028;49.468;7.694;2023-04-24T01:44:20;2.38;;;1.50;;
5999;SDS011;3028;49.468;7.694;2023-04-24T01:46:23;0.70;;;0.70;;
5999;SDS011;3028;49.468;7.694;2023-04-24T01:48:25;0.75;;;0.75;;
5999;SDS011;3028;49.468;7.694;2023-04-24T01:50:27;1.08;;;0.93;;
5999;SDS011;3028;49.468;7.694;2023-04-24T01:52:29;1.08;;;0.90;;
5999;SDS011;3028;49.468;7.694;2023-04-24T01:54:32;1.00;;;1.00;;
5999;SDS011;3028;49.468;7.694;2023-04-24T01:56:34;1.00;;;1.00;;
5999;SDS011;3028;49.468;7.694;2023-04-24T01:58:39;1.60;;;0.98;;
5999;SDS011;3028;49.468;7.694;2023-04-24T02:00:41;2.55;;;0.80;;
5999;SDS011;3028;49.468;7.694;2023-04-24T02:02:43;1.35;;;1.00;;
5999;SDS011;3028;49.468;7.694;2023-04-24T02:04:48;4.00;;;0.90;;
5999;SDS011;3028;49.468;7.694;2023-04-24T02:06:50;1.58;;;0.90;;
5999;SDS011;3028;49.468;7.694;2023-04-24T02:08:52;1.08;;;1.08;;
5999;SDS011;3028;49.468;7.694;2023-04-24T02:10:53;1.70;;;1.27;;
5999;SDS011;3028;49.468;7.694;2023-04-24T02:12:55;1.00;;;1.00;;
5999;SDS011;3028;49.468;7.694;2023-04-24T02:14:57;2.30;;;1.45;;
5999;SDS011;3028;49.468;7.694;2023-04-24T02:16:59;1.08;;;1.08;;
5999;SDS011;3028;49.468;7.694;2023-04-24T02:19:02;1.40;;;1.30;;
5999;SDS011;3028;49.468;7.694;2023-04-24T02:21:04;2.25;;;2.05;;
5999;SDS011;3028;49.468;7.694;2023-04-24T02:23:06;1.63;;;1.52;;
5999;SDS011;3028;49.468;7.694;2023-04-24T02:25:08;1.92;;;1.83;;
5999;SDS011;3028;49.468;7.694;2023-04-24T02:27:10;1.25;;;1.25;;
5999;SDS011;3028;49.468;7.694;2023-04-24T02:29:12;1.77;;;1.67;;
5999;SDS011;3028;49.468;7.694;2023-04-24T02:31:14;1.90;;;1.80;;
5999;SDS011;3028;49.468;7.694;2023-04-24T02:33:16;2.05;;;1.85;;
5999;SDS011;3028;49.468;7.694;2023-04-24T02:35:18;1.98;;;1.88;;
5999;SDS011;3028;49.468;7.694;2023-04-24T02:37:20;2.33;;;2.13;;
5999;SDS011;3028;49.468;7.694;2023-04-24T02:39:21;1.67;;;1.58;;
5999;SDS011;3028;49.468;7.694;2023-04-24T02:41:23;1.88;;;1.77;;
5999;SDS011;3028;49.468;7.694;2023-04-24T02:43:25;2.10;;;2.00;;
5999;SDS011;3028;49.468;7.694;2023-04-24T02:45:27;1.67;;;1.58;;
5999;SDS011;3028;49.468;7.694;2023-04-24T02:47:28;1.80;;;1.70;;
5999;SDS011;3028;49.468;7.694;2023-04-24T02:49:30;3.17;;;1.83;;
5999;SDS011;3028;49.468;7.694;2023-04-24T02:51:32;2.22;;;1.77;;
5999;SDS011;3028;49.468;7.694;2023-04-24T02:53:34;2.13;;;2.03;;
5999;SDS011;3028;49.468;7.694;2023-04-24T02:55:35;2.05;;;1.92;;
5999;SDS011;3028;49.468;7.694;2023-04-24T02:57:37;1.60;;;1.50;;
5999;SDS011;3028;49.468;7.694;2023-04-24T02:59:39;1.55;;;1.50;;
5999;SDS011;3028;49.468;7.694;2023-04-24T03:01:41;2.58;;;2.38;;
5999;SDS011;3028;49.468;7.694;2023-04-24T03:03:43;2.65;;;1.65;;
5999;SDS011;3028;49.468;7.694;2023-04-24T03:05:45;1.83;;;1.73;;
5999;SDS011;3028;49.468;7.694;2023-04-24T03:07:47;1.58;;;1.48;;
5999;SDS011;3028;49.468;7.694;2023-04-24T03:09:49;3.38;;;2.30;;
5999;SDS011;3028;49.468;7.694;2023-04-24T03:11:51;2.22;;;2.03;;
5999;SDS011;3028;49.468;7.694;2023-04-24T03:13:52;3.47;;;1.90;;
5999;SDS011;3028;49.468;7.694;2023-04-24T03:15:54;3.03;;;1.50;;
5999;SDS011;3028;49.468;7.694;2023-04-24T03:17:56;2.47;;;2.03;;
5999;SDS011;3028;49.468;7.694;2023-04-24T03:19:58;2.17;;;1.98;;
5999;SDS011;3028;49.468;7.694;2023-04-24T03:22:01;2.17;;;2.08;;
5999;SDS011;3028;49.468;7.694;2023-04-24T03:24:03;2.60;;;1.73;;
5999;SDS011;3028;49.468;7.694;2023-04-24T03:26:05;3.03;;;2.63;;
5999;SDS011;3028;49.468;7.694;2023-04-24T03:28:07;2.30;;;2.10;;
5999;SDS011;3028;49.468;7.694;2023-04-24T03:30:08;2.30;;;2.10;;
5999;SDS011;3028;49.468;7.694;2023-04-24T03:32:10;2.00;;;1.90;;
5999;SDS011;3028;49.468;7.694;2023-04-24T03:34:12;1.88;;;1.77;;
5999;SDS011;3028;49.468;7.694;2023-04-24T03:36:14;4.88;;;1.77;;
5999;SDS011;3028;49.468;7.694;2023-04-24T03:38:16;2.10;;;2.00;;
5999;SDS011;3028;49.468;7.694;2023-04-24T03:40:18;2.95;;;2.17;;
5999;SDS011;3028;49.468;7.694;2023-04-24T03:42:19;2.38;;;2.10;;
5999;SDS011;3028;49.468;7.694;2023-04-24T03:44:21;2.72;;;2.53;;
5999;SDS011;3028;49.468;7.694;2023-04-24T03:46:23;2.25;;;2.05;;
5999;SDS011;3028;49.468;7.694;2023-04-24T03:48:25;2.65;;;2.45;;
5999;SDS011;3028;49.468;7.694;2023-04-24T03:50:27;2.80;;;2.60;;
5999;SDS011;3028;49.468;7.694;2023-04-24T03:52:30;2.63;;;2.42;;
5999;SDS011;3028;49.468;7.694;2023-04-24T03:54:32;2.35;;;2.25;;
5999;SDS011;3028;49.468;7.694;2023-04-24T03:56:34;3.03;;;2.83;;
5999;SDS011;3028;49.468;7.694;2023-04-24T03:58:36;2.60;;;2.45;;
5999;SDS011;3028;49.468;7.694;2023-04-24T04:00:37;2.67;;;2.47;;
5999;SDS011;3028;49.468;7.694;2023-04-24T04:02:41;2.90;;;2.65;;
5999;SDS011;3028;49.468;7.694;2023-04-24T04:04:43;2.20;;;1.92;;
5999;SDS011;3028;49.468;7.694;2023-04-24T04:06:45;2.70;;;2.50;;
5999;SDS011;3028;49.468;7.694;2023-04-24T04:08:47;3.50;;;3.20;;
5999;SDS011;3028;49.468;7.694;2023-04-24T04:10:49;3.47;;;3.03;;
5999;SDS011;3028;49.468;7.694;2023-04-24T04:12:51;2.67;;;2.47;;
5999;SDS011;3028;49.468;7.694;2023-04-24T04:14:53;2.60;;;2.40;;
5999;SDS011;3028;49.468;7.694;2023-04-24T04:16:54;3.53;;;3.22;;
5999;SDS011;3028;49.468;7.694;2023-04-24T04:18:56;2.88;;;2.60;;
5999;SDS011;3028;49.468;7.694;2023-04-24T04:20:58;6.15;;;2.83;;
5999;SDS011;3028;49.468;7.694;2023-04-24T04:23:02;2.88;;;2.67;;
5999;SDS011;3028;49.468;7.694;2023-04-24T04:25:04;2.92;;;2.72;;
5999;SDS011;3028;49.468;7.694;2023-04-24T04:27:06;3.92;;;2.92;;
5999;SDS011;3028;49.468;7.694;2023-04-24T04:29:09;3.15;;;2.83;;
5999;SDS011;3028;49.468;7.694;2023-04-24T04:31:11;10.65;;;3.45;;
5999;SDS011;3028;49.468;7.694;2023-04-24T04:33:13;2.92;;;2.72;;
5999;SDS011;3028;49.468;7.694;2023-04-24T04:35:15;6.82;;;3.70;;
5999;SDS011;3028;49.468;7.694;2023-04-24T04:37:17;3.70;;;3.40;;
5999;SDS011;3028;49.468;7.694;2023-04-24T04:39:23;4.35;;;3.95;;
5999;SDS011;3028;49.468;7.694;2023-04-24T04:41:34;3.67;;;3.15;;
5999;SDS011;3028;49.468;7.694;2023-04-24T04:43:41;3.35;;;3.15;;
5999;SDS011;3028;49.468;7.694;2023-04-24T04:45:43;4.38;;;3.20;;
5999;SDS011;3028;49.468;7.694;2023-04-24T04:47:46;3.78;;;3.45;;
5999;SDS011;3028;49.468;7.694;2023-04-24T04:49:48;4.57;;;4.18;;
5999;SDS011;3028;49.468;7.694;2023-04-24T04:51:50;4.40;;;3.90;;
5999;SDS011;3028;49.468;7.694;2023-04-24T04:53:52;4.55;;;4.15;;
5999;SDS011;3028;49.468;7.694;2023-04-24T04:55:54;4.38;;;3.97;;
5999;SDS011;3028;49.468;7.694;2023-04-24T04:57:56;3.42;;;3.15;;
5999;SDS011;3028;49.468;7.694;2023-04-24T04:59:58;4.68;;;4.30;;
5999;SDS011;3028;49.468;7.694;2023-04-24T05:02:00;4.45;;;4.05;;
5999;SDS011;3028;49.468;7.694;2023-04-24T05:04:04;4.60;;;3.78;;
5999;SDS011;3028;49.468;7.694;2023-04-24T05:06:06;4.30;;;4.00;;
5999;SDS011;3028;49.468;7.694;2023-04-24T05:08:11;3.65;;;3.35;;
5999;SDS011;3028;49.468;7.694;2023-04-24T05:10:33;4.47;;;4.07;;
5999;SDS011;3028;49.468;7.694;2023-04-24T05:12:35;4.20;;;3.83;;
5999;SDS011;3028;49.468;7.694;2023-04-24T05:14:37;4.70;;;4.30;;
5999;SDS011;3028;49.468;7.694;2023-04-24T05:16:40;4.03;;;3.72;;
5999;SDS011;3028;49.468;7.694;2023-04-24T05:18:42;7.90;;;3.90;;
5999;SDS011;3028;49.468;7.694;2023-04-24T05:20:44;5.05;;;4.65;;
5999;SDS011;3028;49.468;7.694;2023-04-24T05:22:46;4.75;;;4.03;;
5999;SDS011;3028;49.468;7.694;2023-04-24T05:24:54;4.82;;;4.43;;
5999;SDS011;3028;49.468;7.694;2023-04-24T05:27:03;5.07;;;4.57;;
5999;SDS011;3028;49.468;7.694;2023-04-24T05:29:08;5.20;;;4.80;;
5999;SDS011;3028;49.468;7.694;2023-04-24T05:31:10;4.57;;;4.15;;
5999;SDS011;3028;49.468;7.694;2023-04-24T05:33:14;3.58;;;3.33;;
5999;SDS011;3028;49.468;7.694;2023-04-24T05:35:16;3.80;;;3.50;;
5999;SDS011;3028;49.468;7.694;2023-04-24T05:37:20;4.18;;;3.78;;
5999;SDS011;3028;49.468;7.694;2023-04-24T05:39:22;7.55;;;4.20;;
5999;SDS011;3028;49.468;7.694;2023-04-24T05:41:26;5.38;;;4.88;;
5999;SDS011;3028;49.468;7.694;2023-04-24T05:43:37;4.78;;;4.03;;
5999;SDS011;3028;49.468;7.694;2023-04-24T05:45:39;4.07;;;3.78;;
5999;SDS011;3028;49.468;7.694;2023-04-24T05:47:41;4.47;;;4.18;;
5999;SDS011;3028;49.468;7.694;2023-04-24T05:49:43;4.38;;;4.07;;
5999;SDS011;3028;49.468;7.694;2023-04-24T05:51:45;4.85;;;4.55;;
5999;SDS011;3028;49.468;7.694;2023-04-24T05:53:47;4.45;;;4.05;;
5999;SDS011;3028;49.468;7.694;2023-04-24T05:55:50;4.18;;;3.50;;
5999;SDS011;3028;49.468;7.694;2023-04-24T05:57:52;4.60;;;4.22;;
5999;SDS011;3028;49.468;7.694;2023-04-24T05:59:55;5.60;;;5.20;;
5999;SDS011;3028;49.468;7.694;2023-04-24T06:01:58;3.90;;;3.60;;
5999;SDS011;3028;49.468;7.694;2023-04-24T06:04:00;4.45;;;4.10;;
5999;SDS011;3028;49.468;7.694;2023-04-24T06:06:02;3.85;;;3.55;;
5999;SDS011;3028;49.468;7.694;2023-04-24T06:08:08;3.97;;;3.67;;
5999;SDS011;3028;49.468;7.694;2023-04-24T06:10:10;4.07;;;3.55;;
5999;SDS011;3028;49.468;7.694;2023-04-24T06:12:21;4.28;;;3.97;;
5999;SDS011;3028;49.468;7.694;2023-04-24T06:14:29;3.28;;;2.90;;
5999;SDS011;3028;49.468;7.694;2023-04-24T06:16:43;3.80;;;3.50;;
5999;SDS011;3028;49.468;7.694;2023-04-24T06:18:49;3.88;;;3.50;;
5999;SDS011;3028;49.468;7.694;2023-04-24T06:20:51;3.22;;;3.00;;
5999;SDS011;3028;49.468;7.694;2023-04-24T06:22:53;3.13;;;2.90;;
5999;SDS011;3028;49.468;7.694;2023-04-24T06:24:56;2.50;;;2.30;;
5999;SDS011;3028;49.468;7.694;2023-04-24T06:27:14;2.88;;;2.58;;
5999;SDS011;3028;49.468;7.694;2023-04-24T06:29:18;2.25;;;2.15;;
5999;SDS011;3028;49.468;7.694;2023-04-24T06:31:21;2.30;;;2.20;;
5999;SDS011;3028;49.468;7.694;2023-04-24T06:33:24;2.83;;;2.38;;
5999;SDS011;3028;49.468;7.694;2023-04-24T06:35:26;3.40;;;3.10;;
5999;SDS011;3028;49.468;7.694;2023-04-24T06:37:29;2.45;;;2.25;;
5999;SDS011;3028;49.468;7.694;2023-04-24T06:39:32;2.00;;;1.90;;
5999;SDS011;3028;49.468;7.694;2023-04-24T06:41:34;2.65;;;2.45;;
5999;SDS011;3028;49.468;7.694;2023-04-24T06:43:36;3.67;;;2.78;;
5999;SDS011;3028;49.468;7.694;2023-04-24T06:45:38;3.38;;;2.85;;
5999;SDS011;3028;49.468;7.694;2023-04-24T06:47:41;2.67;;;2.47;;
5999;SDS011;3028;49.468;7.694;2023-04-24T06:49:47;3.38;;;2.90;;
5999;SDS011;3028;49.468;7.694;2023-04-24T06:51:49;3.13;;;2.85;;
5999;SDS011;3028;49.468;7.694;2023-04-24T06:53:52;3.78;;;2.85;;
5999;SDS011;3028;49.468;7.694;2023-04-24T06:55:55;3.00;;;2.03;;
5999;SDS011;3028;49.468;7.694;2023-04-24T06:57:58;2.42;;;2.00;;
5999;SDS011;3028;49.468;7.694;2023-04-24T07:00:10;1.95;;;1.85;;
5999;SDS011;3028;49.468;7.694;2023-04-24T07:02:13;2.15;;;2.03;;
5999;SDS011;3028;49.468;7.694;2023-04-24T07:04:15;1.73;;;1.63;;
5999;SDS011;3028;49.468;7.694;2023-04-24T07:06:18;3.05;;;2.25;;
5999;SDS011;3028;49.468;7.694;2023-04-24T07:08:23;1.95;;;1.75;;
5999;SDS011;3028;49.468;7.694;2023-04-24T07:10:27;1.80;;;1.70;;
5999;SDS011;3028;49.468;7.694;2023-04-24T07:12:32;1.83;;;1.48;;
5999;SDS011;3028;49.468;7.694;2023-04-24T07:14:39;2.28;;;1.77;;
5999;SDS011;3028;49.468;7.694;2023-04-24T07:16:42;6.15;;;2.00;;
5999;SDS011;3028;49.468;7.694;2023-04-24T07:18:45;1.88;;;1.75;;
5999;SDS011;3028;49.468;7.694;2023-04-24T07:20:51;1.73;;;1.63;;
5999;SDS011;3028;49.468;7.694;2023-04-24T07:22:53;1.70;;;1.60;;
5999;SDS011;3028;49.468;7.694;2023-04-24T07:24:55;1.70;;;1.60;;
5999;SDS011;3028;49.468;7.694;2023-04-24T07:26:57;2.03;;;1.83;;
5999;SDS011;3028;49.468;7.694;2023-04-24T07:28:59;1.45;;;1.35;;
5999;SDS011;3028;49.468;7.694;2023-04-24T07:31:05;1.77;;;1.67;;
5999;SDS011;3028;49.468;7.694;2023-04-24T07:33:07;2.00;;;1.90;;
5999;SDS011;3028;49.468;7.694;2023-04-24T07:35:13;2.15;;;1.95;;
5999;SDS011;3028;49.468;7.694;2023-04-24T07:37:15;1.92;;;1.60;;
5999;SDS011;3028;49.468;7.694;2023-04-24T07:39:17;2.38;;;2.17;;
5999;SDS011;3028;49.468;7.694;2023-04-24T07:41:23;3.58;;;3.28;;
5999;SDS011;3028;49.468;7.694;2023-04-24T07:43:26;2.63;;;2.28;;
5999;SDS011;3028;49.468;7.694;2023-04-24T07:45:39;2.30;;;2.13;;
5999;SDS011;3028;49.468;7.694;2023-04-24T07:47:41;1.77;;;1.67;;
5999;SDS011;3028;49.468;7.694;2023-04-24T07:49:45;2.33;;;2.20;;
5999;SDS011;3028;49.468;7.694;2023-04-24T07:51:48;3.08;;;2.20;;
5999;SDS011;3028;49.468;7.694;2023-04-24T07:54:01;2.05;;;1.95;;
5999;SDS011;3028;49.468;7.694;2023-04-24T07:56:04;2.92;;;2.83;;
5999;SDS011;3028;49.468;7.694;2023-04-24T07:58:06;1.80;;;1.70;;
5999;SDS011;3028;49.468;7.694;2023-04-24T08:00:07;2.67;;;2.03;;
5999;SDS011;3028;49.468;7.694;2023-04-24T08:02:10;4.25;;;2.40;;
5999;SDS011;3028;49.468;7.694;2023-04-24T08:04:13;2.10;;;2.00;;
5999;SDS011;3028;49.468;7.694;2023-04-24T08:06:15;2.97;;;2.33;;
5999;SDS011;3028;49.468;7.694;2023-04-24T08:08:20;2.25;;;1.83;;
5999;SDS011;3028;49.468;7.694;2023-04-24T08:10:34;2.50;;;2.20;;
5999;SDS011;3028;49.468;7.694;2023-04-24T08:12:36;2.53;;;2.33;;
5999;SDS011;3028;49.468;7.694;2023-04-24T08:14:39;2.50;;;2.30;;
5999;SDS011;3028;49.468;7.694;2023-04-24T08:16:41;2.80;;;2.53;;
5999;SDS011;3028;49.468;7.694;2023-04-24T08:18:43;2.38;;;2.17;;
5999;SDS011;3028;49.468;7.694;2023-04-24T08:20:44;3.25;;;2.95;;
5999;SDS011;3028;49.468;7.694;2023-04-24T08:22:46;2.55;;;2.35;;
5999;SDS011;3028;49.468;7.694;2023-04-24T08:24:49;3.15;;;2.95;;
5999;SDS011;3028;49.468;7.694;2023-04-24T08:26:52;2.80;;;2.60;;
5999;SDS011;3028;49.468;7.694;2023-04-24T08:28:55;2.58;;;2.38;;
5999;SDS011;3028;49.468;7.694;2023-04-24T08:30:57;3.25;;;2.65;;
5999;SDS011;3028;49.468;7.694;2023-04-24T08:32:58;3.97;;;2.17;;
5999;SDS011;3028;49.468;7.694;2023-04-24T08:35:00;2.80;;;2.58;;
5999;SDS011;3028;49.468;7.694;2023-04-24T08:37:02;1.70;;;1.60;;
5999;SDS011;3028;49.468;7.694;2023-04-24T08:39:05;2.55;;;2.35;;
5999;SDS011;3028;49.468;7.694;2023-04-24T08:41:07;2.72;;;2.53;;
5999;SDS011;3028;49.468;7.694;2023-04-24T08:43:09;2.03;;;1.88;;
5999;SDS011;3028;49.468;7.694;2023-04-24T08:45:11;3.03;;;2.55;;
5999;SDS011;3028;49.468;7.694;2023-04-24T08:47:14;3.10;;;2.80;;
5999;SDS011;3028;49.468;7.694;2023-04-24T08:49:16;2.13;;;2.03;;
5999;SDS011;3028;49.468;7.694;2023-04-24T08:51:19;2.55;;;2.17;;
5999;SDS011;3028;49.468;7.694;2023-04-24T08:53:21;2.08;;;1.95;;
5999;SDS011;3028;49.468;7.694;2023-04-24T08:55:24;2.55;;;2.35;;
5999;SDS011;3028;49.468;7.694;2023-04-24T08:57:26;2.55;;;2.05;;
5999;SDS011;3028;49.468;7.694;2023-04-24T08:59:32;3.15;;;2.42;;
5999;SDS011;3028;49.468;7.694;2023-04-24T09:01:34;2.45;;;2.35;;
5999;SDS011;3028;49.468;7.694;2023-04-24T09:03:36;2.88;;;2.58;;
5999;SDS011;3028;49.468;7.694;2023-04-24T09:05:39;4.43;;;3.03;;
5999;SDS011;3028;49.468;7.694;2023-04-24T09:07:42;3.25;;;2.95;;
5999;SDS011;3028;49.468;7.694;2023-04-24T09:09:47;3.13;;;2.92;;
5999;SDS011;3028;49.468;7.694;2023-04-24T09:11:50;2.63;;;2.42;;
5999;SDS011;3028;49.468;7.694;2023-04-24T09:13:54;4.20;;;2.97;;
5999;SDS011;3028;49.468;7.694;2023-04-24T09:15:57;2.33;;;2.10;;
5999;SDS011;3028;49.468;7.694;2023-04-24T09:17:58;3.47;;;3.17;;
5999;SDS011;3028;49.468;7.694;2023-04-24T09:20:01;3.22;;;2.75;;
5999;SDS011;3028;49.468;7.694;2023-04-24T09:22:07;3.03;;;2.20;;
5999;SDS011;3028;49.468;7.694;2023-04-24T09:24:16;6.88;;;3.13;;
5999;SDS011;3028;49.468;7.694;2023-04-24T09:26:23;2.70;;;2.40;;
5999;SDS011;3028;49.468;7.694;2023-04-24T09:28:35;2.83;;;2.58;;
5999;SDS011;3028;49.468;7.694;2023-04-24T09:30:45;3.55;;;2.60;;
5999;SDS011;3028;49.468;7.694;2023-04-24T09:32:53;3.72;;;3.42;;
5999;SDS011;3028;49.468;7.694;2023-04-24T09:35:14;2.58;;;2.20;;
5999;SDS011;3028;49.468;7.694;2023-04-24T09:37:27;2.67;;;2.47;;
5999;SDS011;3028;49.468;7.694;2023-04-24T09:39:30;3.40;;;2.70;;
5999;SDS011;3028;49.468;7.694;2023-04-24T09:41:32;2.55;;;2.35;;
5999;SDS011;3028;49.468;7.694;2023-04-24T09:43:35;3.33;;;3.05;;
5999;SDS011;3028;49.468;7.694;2023-04-24T09:45:41;2.40;;;2.30;;
5999;SDS011;3028;49.468;7.694;2023-04-24T09:47:43;4.13;;;3.40;;
5999;SDS011;3028;49.468;7.694;2023-04-24T09:49:46;2.70;;;2.17;;
5999;SDS011;3028;49.468;7.694;2023-04-24T09:51:48;4.53;;;2.97;;
5999;SDS011;3028;49.468;7.694;2023-04-24T09:53:50;4.13;;;3.83;;
5999;SDS011;3028;49.468;7.694;2023-04-24T09:55:54;3.33;;;3.03;;
5999;SDS011;3028;49.468;7.694;2023-04-24T09:57:58;2.85;;;2.53;;
5999;SDS011;3028;49.468;7.694;2023-04-24T10:00:03;2.85;;;2.65;;
5999;SDS011;3028;49.468;7.694;2023-04-24T10:02:16;3.25;;;2.95;;
5999;SDS011;3028;49.468;7.694;2023-04-24T10:04:28;3.35;;;3.05;;
5999;SDS011;3028;49.468;7.694;2023-04-24T10:06:33;4.30;;;3.90;;
5999;SDS011;3028;49.468;7.694;2023-04-24T10:08:36;6.90;;;4.60;;
5999;SDS011;3028;49.468;7.694;2023-04-24T10:10:48;7.13;;;4.38;;
5999;SDS011;3028;49.468;7.694;2023-04-24T10:12:51;4.50;;;3.60;;
5999;SDS011;3028;49.468;7.694;2023-04-24T10:14:53;3.67;;;3.38;;
5999;SDS011;3028;49.468;7.694;2023-04-24T10:16:55;3.42;;;3.15;;
5999;SDS011;3028;49.468;7.694;2023-04-24T10:19:02;5.18;;;3.97;;
5999;SDS011;3028;49.468;7.694;2023-04-24T10:21:08;4.65;;;4.20;;
5999;SDS011;3028;49.468;7.694;2023-04-24T10:23:10;4.57;;;4.20;;
5999;SDS011;3028;49.468;7.694;2023-04-24T10:25:12;4.38;;;4.03;;
5999;SDS011;3028;49.468;7.694;2023-04-24T10:27:17;4.18;;;3.83;;
5999;SDS011;3028;49.468;7.694;2023-04-24T10:29:19;5.03;;;4.03;;
5999;SDS011;3028;49.468;7.694;2023-04-24T10:31:23;9.45;;;4.28;;
5999;SDS011;3028;49.468;7.694;2023-04-24T10:33:33;4.13;;;3.53;;
5999;SDS011;3028;49.468;7.694;2023-04-24T10:35:37;4.68;;;3.63;;
5999;SDS011;3028;49.468;7.694;2023-04-24T10:37:47;4.38;;;3.92;;
5999;SDS011;3028;49.468;7.694;2023-04-24T10:39:51;4.05;;;3.47;;
5999;SDS011;3028;49.468;7.694;2023-04-24T10:41:55;4.00;;;3.47;;
5999;SDS011;3028;49.468;7.694;2023-04-24T10:46:22;5.78;;;3.67;;
5999;SDS011;3028;49.468;7.694;2023-04-24T10:48:26;4.90;;;4.50;;
5999;SDS011;3028;49.468;7.694;2023-04-24T10:50:50;4.53;;;4.07;;
5999;SDS011;3028;49.468;7.694;2023-04-24T10:53:06;5.50;;;3.80;;
5999;SDS011;3028;49.468;7.694;2023-04-24T10:55:09;3.83;;;3.53;;
5999;SDS011;3028;49.468;7.694;2023-04-24T10:57:27;4.13;;;3.83;;
5999;SDS011;3028;49.468;7.694;2023-04-24T10:59:34;4.65;;;4.25;;
5999;SDS011;3028;49.468;7.694;2023-04-24T11:01:37;7.35;;;5.03;;
5999;SDS011;3028;49.468;7.694;2023-04-24T11:03:39;4.75;;;3.70;;
5999;SDS011;3028;49.468;7.694;2023-04-24T11:05:53;5.40;;;4.80;;
5999;SDS011;3028;49.468;7.694;2023-04-24T11:08:21;5.05;;;3.92;;
5999;SDS011;3028;49.468;7.694;2023-04-24T11:10:37;6.38;;;3.53;;
5999;SDS011;3028;49.468;7.694;2023-04-24T11:12:40;6.85;;;3.80;;
5999;SDS011;3028;49.468;7.694;2023-04-24T11:16:59;4.03;;;3.72;;
5999;SDS011;3028;49.468;7.694;2023-04-24T11:19:24;3.88;;;3.47;;
5999;SDS011;3028;49.468;7.694;2023-04-24T11:21:47;4.97;;;3.17;;
5999;SDS011;3028;49.468;7.694;2023-04-24T11:23:51;4.28;;;3.88;;
5999;SDS011;3028;49.468;7.694;2023-04-24T11:26:09;4.88;;;3.60;;
5999;SDS011;3028;49.468;7.694;2023-04-24T11:28:14;4.45;;;3.25;;
5999;SDS011;3028;49.468;7.694;2023-04-24T11:30:20;5.00;;;2.97;;
5999;SDS011;3028;49.468;7.694;2023-04-24T11:32:23;3.92;;;3.67;;
5999;SDS011;3028;49.468;7.694;2023-04-24T11:34:34;7.15;;;3.45;;
5999;SDS011;3028;49.468;7.694;2023-04-24T11:36:42;3.58;;;3.28;;
5999;SDS011;3028;49.468;7.694;2023-04-24T11:38:55;4.55;;;2.95;;
5999;SDS011;3028;49.468;7.694;2023-04-24T11:41:01;4.47;;;3.40;;
5999;SDS011;3028;49.468;7.694;2023-04-24T11:43:07;5.72;;;3.58;;
5999;SDS011;3028;49.468;7.694;2023-04-24T11:45:17;3.67;;;3.20;;
5999;SDS011;3028;49.468;7.694;2023-04-24T11:47:35;4.40;;;3.22;;
5999;SDS011;3028;49.468;7.694;2023-04-24T11:49:38;4.47;;;3.45;;
5999;SDS011;3028;49.468;7.694;2023-04-24T11:51:40;4.82;;;3.78;;
5999;SDS011;3028;49.468;7.694;2023-04-24T11:53:54;3.45;;;3.00;;
5999;SDS011;3028;49.468;7.694;2023-04-24T11:56:04;3.80;;;2.80;;
5999;SDS011;3028;49.468;7.694;2023-04-24T11:58:07;3.25;;;2.95;;
5999;SDS011;3028;49.468;7.694;2023-04-24T12:00:14;3.55;;;3.28;;
5999;SDS011;3028;49.468;7.694;2023-04-24T12:02:21;5.82;;;3.55;;
5999;SDS011;3028;49.468;7.694;2023-04-24T12:04:24;3.95;;;3.45;;
5999;SDS011;3028;49.468;7.694;2023-04-24T12:06:26;3.60;;;3.00;;
5999;SDS011;3028;49.468;7.694;2023-04-24T12:08:28;5.25;;;3.20;;
5999;SDS011;3028;49.468;7.694;2023-04-24T12:10:31;6.32;;;3.95;;
5999;SDS011;3028;49.468;7.694;2023-04-24T12:12:37;3.67;;;3.38;;
5999;SDS011;3028;49.468;7.694;2023-04-24T12:14:48;3.72;;;3.42;;
5999;SDS011;3028;49.468;7.694;2023-04-24T12:16:51;4.28;;;3.97;;
5999;SDS011;3028;49.468;7.694;2023-04-24T12:18:53;3.80;;;3.50;;
5999;SDS011;3028;49.468;7.694;2023-04-24T12:20:55;10.68;;;3.60;;
5999;SDS011;3028;49.468;7.694;2023-04-24T12:23:01;5.57;;;3.60;;
5999;SDS011;3028;49.468;7.694;2023-04-24T12:25:03;4.18;;;3.78;;
5999;SDS011;3028;49.468;7.694;2023-04-24T12:27:06;4.57;;;4.18;;
5999;SDS011;3028;49.468;7.694;2023-04-24T12:29:09;5.38;;;3.63;;
5999;SDS011;3028;49.468;7.694;2023-04-24T12:31:10;3.75;;;3.45;;
5999;SDS011;3028;49.468;7.694;2023-04-24T12:33:12;4.57;;;3.55;;
5999;SDS011;3028;49.468;7.694;2023-04-24T12:35:20;4.03;;;3.30;;
5999;SDS011;3028;49.468;7.694;2023-04-24T12:37:24;12.95;;;4.20;;
5999;SDS011;3028;49.468;7.694;2023-04-24T12:39:27;4.25;;;3.63;;
5999;SDS011;3028;49.468;7.694;2023-04-24T12:41:30;3.92;;;3.63;;
5999;SDS011;3028;49.468;7.694;2023-04-24T12:43:33;5.60;;;2.97;;
5999;SDS011;3028;49.468;7.694;2023-04-24T12:45:36;3.58;;;3.28;;
5999;SDS011;3028;49.468;7.694;2023-04-24T12:47:39;2.85;;;2.65;;
5999;SDS011;3028;49.468;7.694;2023-04-24T12:49:42;6.28;;;3.35;;
5999;SDS011;3028;49.468;7.694;2023-04-24T12:51:44;4.95;;;3.05;;
5999;SDS011;3028;49.468;7.694;2023-04-24T12:53:46;5.72;;;2.80;;